This is the latest recevied weather packets stored in our database for station/object S53BL-10. If no packets are shown the sender has not sent any weather packets the latest 10 day(s).
| Time | Temp. | Humidity | Pressure | Rain* | Wind** | Luminosity | Snow |
|---|---|---|---|---|---|---|---|
| 1777569724 | 13.33° C | 27% | 1022 hPa | - | - | - | - |
| 1777568822 | 14.44° C | 27% | 1021.8 hPa | - | - | - | - |
| 1777564318 | 17.78° C | 21% | 1021.7 hPa | - | - | - | - |
| 1777563416 | 18.33° C | 20% | 1021.6 hPa | - | - | - | - |
| 1777562515 | 18.33° C | 22% | 1021.7 hPa | - | - | - | - |
| 1777560714 | 18.33° C | 22% | 1021.7 hPa | - | - | - | - |
| 1777556210 | 19.44° C | 21% | 1022 hPa | - | - | - | - |
| 1777555309 | 19.44° C | 21% | 1022.1 hPa | - | - | - | - |
| 1777554408 | 18.33° C | 21% | 1022.3 hPa | - | - | - | - |
| 1777551706 | 19.44° C | 22% | 1022.8 hPa | - | - | - | - |
| 1777545400 | 17.22° C | 24% | 1023.5 hPa | - | - | - | - |
| 1777544499 | 16.67° C | 24% | 1023.6 hPa | - | - | - | - |
| 1777543599 | 16.11° C | 24% | 1023.8 hPa | - | - | - | - |
| 1777541796 | 15.56° C | 25% | 1024.1 hPa | - | - | - | - |
| 1777540895 | 15° C | 25% | 1024.2 hPa | - | - | - | - |
| 1777539995 | 15° C | 27% | 1024.2 hPa | - | - | - | - |
| 1777538193 | 13.89° C | 32% | 1024.1 hPa | - | - | - | - |
| 1777537291 | 12.78° C | 35% | 1024.1 hPa | - | - | - | - |
| 1777536391 | 11.67° C | 35% | 1024 hPa | - | - | - | - |
| 1777535490 | 11.11° C | 40% | 1024.1 hPa | - | - | - | - |
| 1777534589 | 10.56° C | 43% | 1024.2 hPa | - | - | - | - |
| 1777533688 | 9.44° C | 47% | 1024.2 hPa | - | - | - | - |
| 1777532787 | 8.33° C | 50% | 1024.2 hPa | - | - | - | - |
| 1777530986 | 5.56° C | 70% | 1024.3 hPa | - | - | - | - |
| 1777530085 | 5° C | 73% | 1024.3 hPa | - | - | - | - |
* Rain since midnight (hover to see other rain measurements)
** Current wind speed in m/s (hover to see current wind gust speed)